sensor_id;sensor_type;location;lat;lon;timestamp;P1;durP1;ratioP1;P2;durP2;ratioP2
57155;SDS011;43023;59.928;10.682;2023-04-15T00:00:41;0.43;;;0.10;;
57155;SDS011;43023;59.928;10.682;2023-04-15T00:03:08;0.52;;;0.20;;
57155;SDS011;43023;59.928;10.682;2023-04-15T00:05:34;1.92;;;0.20;;
57155;SDS011;43023;59.928;10.682;2023-04-15T00:08:00;0.22;;;0.20;;
57155;SDS011;43023;59.928;10.682;2023-04-15T00:10:27;0.35;;;0.20;;
57155;SDS011;43023;59.928;10.682;2023-04-15T00:12:53;0.22;;;0.22;;
57155;SDS011;43023;59.928;10.682;2023-04-15T00:15:19;0.68;;;0.20;;
57155;SDS011;43023;59.928;10.682;2023-04-15T00:17:45;0.05;;;0.05;;
57155;SDS011;43023;59.928;10.682;2023-04-15T00:20:11;0.43;;;0.10;;
57155;SDS011;43023;59.928;10.682;2023-04-15T00:22:38;0.57;;;0.20;;
57155;SDS011;43023;59.928;10.682;2023-04-15T00:25:04;1.48;;;0.35;;
57155;SDS011;43023;59.928;10.682;2023-04-15T00:27:30;2.25;;;0.30;;
57155;SDS011;43023;59.928;10.682;2023-04-15T00:29:57;0.50;;;0.20;;
57155;SDS011;43023;59.928;10.682;2023-04-15T00:32:23;0.28;;;0.10;;
57155;SDS011;43023;59.928;10.682;2023-04-15T00:34:49;0.38;;;0.20;;
57155;SDS011;43023;59.928;10.682;2023-04-15T00:37:15;0.60;;;0.20;;
57155;SDS011;43023;59.928;10.682;2023-04-15T00:39:41;0.10;;;0.10;;
57155;SDS011;43023;59.928;10.682;2023-04-15T00:42:08;0.82;;;0.20;;
57155;SDS011;43023;59.928;10.682;2023-04-15T00:44:35;0.20;;;0.20;;
57155;SDS011;43023;59.928;10.682;2023-04-15T00:47:01;1.00;;;0.20;;
57155;SDS011;43023;59.928;10.682;2023-04-15T00:49:29;0.10;;;0.10;;
57155;SDS011;43023;59.928;10.682;2023-04-15T00:51:56;0.15;;;0.10;;
57155;SDS011;43023;59.928;10.682;2023-04-15T00:54:22;0.25;;;0.10;;
57155;SDS011;43023;59.928;10.682;2023-04-15T00:56:48;0.52;;;0.20;;
57155;SDS011;43023;59.928;10.682;2023-04-15T00:59:14;0.22;;;0.17;;
57155;SDS011;43023;59.928;10.682;2023-04-15T01:01:42;1.00;;;0.22;;
57155;SDS011;43023;59.928;10.682;2023-04-15T01:04:09;0.52;;;0.08;;
57155;SDS011;43023;59.928;10.682;2023-04-15T01:06:36;0.10;;;0.10;;
57155;SDS011;43023;59.928;10.682;2023-04-15T01:09:02;0.30;;;0.20;;
57155;SDS011;43023;59.928;10.682;2023-04-15T01:11:28;0.10;;;0.10;;
57155;SDS011;43023;59.928;10.682;2023-04-15T01:13:55;0.10;;;0.10;;
57155;SDS011;43023;59.928;10.682;2023-04-15T01:16:21;0.17;;;0.10;;
57155;SDS011;43023;59.928;10.682;2023-04-15T01:18:47;0.00;;;0.00;;
57155;SDS011;43023;59.928;10.682;2023-04-15T01:21:14;0.25;;;0.10;;
57155;SDS011;43023;59.928;10.682;2023-04-15T01:23:40;0.45;;;0.20;;
57155;SDS011;43023;59.928;10.682;2023-04-15T01:26:06;1.27;;;0.30;;
57155;SDS011;43023;59.928;10.682;2023-04-15T01:28:36;0.70;;;0.10;;
57155;SDS011;43023;59.928;10.682;2023-04-15T01:31:09;0.93;;;0.10;;
57155;SDS011;43023;59.928;10.682;2023-04-15T01:33:36;0.10;;;0.10;;
57155;SDS011;43023;59.928;10.682;2023-04-15T01:36:03;0.30;;;0.17;;
57155;SDS011;43023;59.928;10.682;2023-04-15T01:38:30;0.10;;;0.10;;
57155;SDS011;43023;59.928;10.682;2023-04-15T01:40:57;0.10;;;0.10;;
57155;SDS011;43023;59.928;10.682;2023-04-15T01:43:24;0.05;;;0.00;;
57155;SDS011;43023;59.928;10.682;2023-04-15T01:45:50;0.20;;;0.20;;
57155;SDS011;43023;59.928;10.682;2023-04-15T01:48:16;0.10;;;0.10;;
57155;SDS011;43023;59.928;10.682;2023-04-15T01:50:43;0.00;;;0.00;;
57155;SDS011;43023;59.928;10.682;2023-04-15T01:53:10;0.20;;;0.10;;
57155;SDS011;43023;59.928;10.682;2023-04-15T01:55:36;0.08;;;0.08;;
57155;SDS011;43023;59.928;10.682;2023-04-15T01:58:03;0.20;;;0.10;;
57155;SDS011;43023;59.928;10.682;2023-04-15T02:03:05;0.63;;;0.13;;
57155;SDS011;43023;59.928;10.682;2023-04-15T02:05:31;0.15;;;0.13;;
57155;SDS011;43023;59.928;10.682;2023-04-15T02:07:57;0.15;;;0.10;;
57155;SDS011;43023;59.928;10.682;2023-04-15T02:10:24;0.10;;;0.10;;
57155;SDS011;43023;59.928;10.682;2023-04-15T02:12:50;0.00;;;0.00;;
57155;SDS011;43023;59.928;10.682;2023-04-15T02:15:16;0.30;;;0.10;;
57155;SDS011;43023;59.928;10.682;2023-04-15T02:17:42;0.10;;;0.10;;
57155;SDS011;43023;59.928;10.682;2023-04-15T02:20:10;0.00;;;0.00;;
57155;SDS011;43023;59.928;10.682;2023-04-15T02:22:36;0.10;;;0.10;;
57155;SDS011;43023;59.928;10.682;2023-04-15T02:25:02;0.20;;;0.10;;
57155;SDS011;43023;59.928;10.682;2023-04-15T02:27:28;0.00;;;0.00;;
57155;SDS011;43023;59.928;10.682;2023-04-15T02:29:55;0.08;;;0.08;;
57155;SDS011;43023;59.928;10.682;2023-04-15T02:32:21;0.20;;;0.20;;
57155;SDS011;43023;59.928;10.682;2023-04-15T02:34:48;0.45;;;0.00;;
57155;SDS011;43023;59.928;10.682;2023-04-15T02:37:15;0.00;;;0.00;;
57155;SDS011;43023;59.928;10.682;2023-04-15T02:39:43;0.08;;;0.00;;
57155;SDS011;43023;59.928;10.682;2023-04-15T02:42:09;0.30;;;0.15;;
57155;SDS011;43023;59.928;10.682;2023-04-15T02:44:35;1.20;;;0.10;;
57155;SDS011;43023;59.928;10.682;2023-04-15T02:47:01;0.00;;;0.00;;
57155;SDS011;43023;59.928;10.682;2023-04-15T02:49:29;0.00;;;0.00;;
57155;SDS011;43023;59.928;10.682;2023-04-15T02:51:55;0.10;;;0.10;;
57155;SDS011;43023;59.928;10.682;2023-04-15T02:54:22;0.10;;;0.10;;
57155;SDS011;43023;59.928;10.682;2023-04-15T02:56:48;0.00;;;0.00;;
57155;SDS011;43023;59.928;10.682;2023-04-15T02:59:15;0.05;;;0.05;;
57155;SDS011;43023;59.928;10.682;2023-04-15T03:01:41;0.10;;;0.10;;
57155;SDS011;43023;59.928;10.682;2023-04-15T03:04:07;0.40;;;0.10;;
57155;SDS011;43023;59.928;10.682;2023-04-15T03:06:34;0.10;;;0.10;;
57155;SDS011;43023;59.928;10.682;2023-04-15T03:09:00;0.05;;;0.05;;
57155;SDS011;43023;59.928;10.682;2023-04-15T03:11:27;0.10;;;0.10;;
57155;SDS011;43023;59.928;10.682;2023-04-15T03:13:53;0.03;;;0.03;;
57155;SDS011;43023;59.928;10.682;2023-04-15T03:16:19;0.25;;;0.10;;
57155;SDS011;43023;59.928;10.682;2023-04-15T03:18:46;0.10;;;0.10;;
57155;SDS011;43023;59.928;10.682;2023-04-15T03:21:12;0.20;;;0.20;;
57155;SDS011;43023;59.928;10.682;2023-04-15T03:23:38;0.00;;;0.00;;
57155;SDS011;43023;59.928;10.682;2023-04-15T03:26:04;0.25;;;0.10;;
57155;SDS011;43023;59.928;10.682;2023-04-15T03:28:30;0.28;;;0.10;;
57155;SDS011;43023;59.928;10.682;2023-04-15T03:30:57;0.10;;;0.10;;
57155;SDS011;43023;59.928;10.682;2023-04-15T03:33:23;0.10;;;0.08;;
57155;SDS011;43023;59.928;10.682;2023-04-15T03:35:50;0.10;;;0.10;;
57155;SDS011;43023;59.928;10.682;2023-04-15T03:38:16;0.10;;;0.10;;
57155;SDS011;43023;59.928;10.682;2023-04-15T03:40:43;0.10;;;0.10;;
57155;SDS011;43023;59.928;10.682;2023-04-15T03:43:09;0.10;;;0.10;;
57155;SDS011;43023;59.928;10.682;2023-04-15T03:45:36;0.10;;;0.10;;
57155;SDS011;43023;59.928;10.682;2023-04-15T03:48:02;0.73;;;0.25;;
57155;SDS011;43023;59.928;10.682;2023-04-15T03:50:28;0.00;;;0.00;;
57155;SDS011;43023;59.928;10.682;2023-04-15T03:52:54;1.30;;;0.15;;
57155;SDS011;43023;59.928;10.682;2023-04-15T03:55:20;0.10;;;0.10;;
57155;SDS011;43023;59.928;10.682;2023-04-15T03:57:46;0.10;;;0.10;;
57155;SDS011;43023;59.928;10.682;2023-04-15T04:00:12;0.10;;;0.10;;
57155;SDS011;43023;59.928;10.682;2023-04-15T04:02:39;0.13;;;0.13;;
57155;SDS011;43023;59.928;10.682;2023-04-15T04:05:05;0.08;;;0.08;;
57155;SDS011;43023;59.928;10.682;2023-04-15T04:07:32;0.17;;;0.13;;
57155;SDS011;43023;59.928;10.682;2023-04-15T04:09:58;0.20;;;0.20;;
57155;SDS011;43023;59.928;10.682;2023-04-15T04:12:24;0.10;;;0.10;;
57155;SDS011;43023;59.928;10.682;2023-04-15T04:14:50;1.02;;;0.20;;
57155;SDS011;43023;59.928;10.682;2023-04-15T04:17:16;0.10;;;0.10;;
57155;SDS011;43023;59.928;10.682;2023-04-15T04:19:42;0.03;;;0.03;;
57155;SDS011;43023;59.928;10.682;2023-04-15T04:22:08;0.20;;;0.20;;
57155;SDS011;43023;59.928;10.682;2023-04-15T04:24:35;0.10;;;0.10;;
57155;SDS011;43023;59.928;10.682;2023-04-15T04:27:01;0.22;;;0.15;;
57155;SDS011;43023;59.928;10.682;2023-04-15T04:29:27;0.45;;;0.10;;
57155;SDS011;43023;59.928;10.682;2023-04-15T04:31:53;0.68;;;0.10;;
57155;SDS011;43023;59.928;10.682;2023-04-15T04:34:19;0.25;;;0.20;;
57155;SDS011;43023;59.928;10.682;2023-04-15T04:36:45;0.00;;;0.00;;
57155;SDS011;43023;59.928;10.682;2023-04-15T04:39:11;0.13;;;0.13;;
57155;SDS011;43023;59.928;10.682;2023-04-15T04:41:37;0.20;;;0.20;;
57155;SDS011;43023;59.928;10.682;2023-04-15T04:44:03;0.10;;;0.10;;
57155;SDS011;43023;59.928;10.682;2023-04-15T04:46:30;0.20;;;0.10;;
57155;SDS011;43023;59.928;10.682;2023-04-15T04:48:56;0.28;;;0.20;;
57155;SDS011;43023;59.928;10.682;2023-04-15T04:51:22;0.20;;;0.10;;
57155;SDS011;43023;59.928;10.682;2023-04-15T04:53:48;0.17;;;0.17;;
57155;SDS011;43023;59.928;10.682;2023-04-15T04:56:14;0.25;;;0.10;;
57155;SDS011;43023;59.928;10.682;2023-04-15T04:58:40;0.17;;;0.10;;
57155;SDS011;43023;59.928;10.682;2023-04-15T05:01:06;0.13;;;0.13;;
57155;SDS011;43023;59.928;10.682;2023-04-15T05:03:33;0.10;;;0.10;;
57155;SDS011;43023;59.928;10.682;2023-04-15T05:05:59;0.20;;;0.20;;
57155;SDS011;43023;59.928;10.682;2023-04-15T05:08:27;0.45;;;0.15;;
57155;SDS011;43023;59.928;10.682;2023-04-15T05:10:53;1.08;;;0.30;;
57155;SDS011;43023;59.928;10.682;2023-04-15T05:13:19;0.40;;;0.30;;
57155;SDS011;43023;59.928;10.682;2023-04-15T05:15:47;1.02;;;0.30;;
57155;SDS011;43023;59.928;10.682;2023-04-15T05:18:13;0.35;;;0.20;;
57155;SDS011;43023;59.928;10.682;2023-04-15T05:20:39;0.28;;;0.20;;
57155;SDS011;43023;59.928;10.682;2023-04-15T05:23:05;0.10;;;0.10;;
57155;SDS011;43023;59.928;10.682;2023-04-15T05:25:31;0.20;;;0.20;;
57155;SDS011;43023;59.928;10.682;2023-04-15T05:27:57;0.20;;;0.20;;
57155;SDS011;43023;59.928;10.682;2023-04-15T05:30:24;0.10;;;0.10;;
57155;SDS011;43023;59.928;10.682;2023-04-15T05:32:50;0.13;;;0.10;;
57155;SDS011;43023;59.928;10.682;2023-04-15T05:35:16;0.10;;;0.10;;
57155;SDS011;43023;59.928;10.682;2023-04-15T05:37:43;0.30;;;0.30;;
57155;SDS011;43023;59.928;10.682;2023-04-15T05:40:09;0.10;;;0.10;;
57155;SDS011;43023;59.928;10.682;2023-04-15T05:42:35;0.20;;;0.20;;
57155;SDS011;43023;59.928;10.682;2023-04-15T05:45:02;0.30;;;0.22;;
57155;SDS011;43023;59.928;10.682;2023-04-15T05:47:29;0.17;;;0.17;;
57155;SDS011;43023;59.928;10.682;2023-04-15T05:49:55;0.20;;;0.20;;
57155;SDS011;43023;59.928;10.682;2023-04-15T05:52:23;0.30;;;0.20;;
57155;SDS011;43023;59.928;10.682;2023-04-15T05:54:49;0.20;;;0.20;;
57155;SDS011;43023;59.928;10.682;2023-04-15T05:57:15;0.20;;;0.20;;
57155;SDS011;43023;59.928;10.682;2023-04-15T05:59:41;0.80;;;0.20;;
57155;SDS011;43023;59.928;10.682;2023-04-15T06:02:09;0.40;;;0.17;;
57155;SDS011;43023;59.928;10.682;2023-04-15T06:04:35;0.28;;;0.28;;
57155;SDS011;43023;59.928;10.682;2023-04-15T06:07:01;0.20;;;0.20;;
57155;SDS011;43023;59.928;10.682;2023-04-15T06:09:28;0.22;;;0.22;;
57155;SDS011;43023;59.928;10.682;2023-04-15T06:11:54;1.65;;;0.30;;
57155;SDS011;43023;59.928;10.682;2023-04-15T06:14:23;0.75;;;0.47;;
57155;SDS011;43023;59.928;10.682;2023-04-15T06:16:49;0.45;;;0.20;;
57155;SDS011;43023;59.928;10.682;2023-04-15T06:19:16;0.15;;;0.15;;
57155;SDS011;43023;59.928;10.682;2023-04-15T06:21:42;0.50;;;0.22;;
57155;SDS011;43023;59.928;10.682;2023-04-15T06:24:09;0.73;;;0.50;;
57155;SDS011;43023;59.928;10.682;2023-04-15T06:26:35;0.22;;;0.22;;
57155;SDS011;43023;59.928;10.682;2023-04-15T06:29:01;0.25;;;0.25;;
57155;SDS011;43023;59.928;10.682;2023-04-15T06:31:27;0.65;;;0.30;;
57155;SDS011;43023;59.928;10.682;2023-04-15T06:33:53;0.30;;;0.20;;
57155;SDS011;43023;59.928;10.682;2023-04-15T06:36:19;0.40;;;0.40;;
57155;SDS011;43023;59.928;10.682;2023-04-15T06:38:45;1.45;;;0.43;;
57155;SDS011;43023;59.928;10.682;2023-04-15T06:41:11;2.53;;;0.30;;
57155;SDS011;43023;59.928;10.682;2023-04-15T06:43:38;0.35;;;0.35;;
57155;SDS011;43023;59.928;10.682;2023-04-15T06:46:04;2.50;;;0.40;;
57155;SDS011;43023;59.928;10.682;2023-04-15T06:48:30;2.65;;;0.70;;
57155;SDS011;43023;59.928;10.682;2023-04-15T06:50:57;2.55;;;0.50;;
57155;SDS011;43023;59.928;10.682;2023-04-15T06:53:24;0.45;;;0.30;;
57155;SDS011;43023;59.928;10.682;2023-04-15T06:55:52;1.45;;;0.47;;
57155;SDS011;43023;59.928;10.682;2023-04-15T06:58:18;1.73;;;0.60;;
57155;SDS011;43023;59.928;10.682;2023-04-15T07:00:44;3.55;;;0.50;;
57155;SDS011;43023;59.928;10.682;2023-04-15T07:03:11;1.88;;;0.73;;
57155;SDS011;43023;59.928;10.682;2023-04-15T07:05:37;1.60;;;0.70;;
57155;SDS011;43023;59.928;10.682;2023-04-15T07:08:04;1.77;;;0.98;;
57155;SDS011;43023;59.928;10.682;2023-04-15T07:10:31;1.80;;;0.40;;
57155;SDS011;43023;59.928;10.682;2023-04-15T07:12:57;2.63;;;0.70;;
57155;SDS011;43023;59.928;10.682;2023-04-15T07:15:23;2.40;;;0.47;;
57155;SDS011;43023;59.928;10.682;2023-04-15T07:17:49;0.30;;;0.30;;
57155;SDS011;43023;59.928;10.682;2023-04-15T07:20:15;2.50;;;0.77;;
57155;SDS011;43023;59.928;10.682;2023-04-15T07:22:41;0.90;;;0.70;;
57155;SDS011;43023;59.928;10.682;2023-04-15T07:25:08;2.15;;;0.73;;
57155;SDS011;43023;59.928;10.682;2023-04-15T07:27:34;3.92;;;0.75;;
57155;SDS011;43023;59.928;10.682;2023-04-15T07:30:00;1.33;;;0.65;;
57155;SDS011;43023;59.928;10.682;2023-04-15T07:32:27;2.58;;;0.60;;
57155;SDS011;43023;59.928;10.682;2023-04-15T07:34:53;2.70;;;0.47;;
57155;SDS011;43023;59.928;10.682;2023-04-15T07:37:19;1.60;;;0.63;;
57155;SDS011;43023;59.928;10.682;2023-04-15T07:39:45;0.60;;;0.55;;
57155;SDS011;43023;59.928;10.682;2023-04-15T07:42:11;0.70;;;0.60;;
57155;SDS011;43023;59.928;10.682;2023-04-15T07:44:37;1.42;;;0.70;;
57155;SDS011;43023;59.928;10.682;2023-04-15T07:47:03;2.08;;;0.60;;
57155;SDS011;43023;59.928;10.682;2023-04-15T07:49:30;1.13;;;0.50;;
57155;SDS011;43023;59.928;10.682;2023-04-15T07:51:56;1.95;;;0.50;;
57155;SDS011;43023;59.928;10.682;2023-04-15T07:54:24;1.02;;;0.57;;
57155;SDS011;43023;59.928;10.682;2023-04-15T07:56:50;1.38;;;0.68;;
57155;SDS011;43023;59.928;10.682;2023-04-15T07:59:16;1.02;;;0.63;;
57155;SDS011;43023;59.928;10.682;2023-04-15T08:01:42;2.72;;;0.65;;
57155;SDS011;43023;59.928;10.682;2023-04-15T08:04:09;3.22;;;0.98;;
57155;SDS011;43023;59.928;10.682;2023-04-15T08:06:35;0.70;;;0.40;;
57155;SDS011;43023;59.928;10.682;2023-04-15T08:09:03;2.38;;;0.50;;
57155;SDS011;43023;59.928;10.682;2023-04-15T08:11:30;3.08;;;0.90;;
57155;SDS011;43023;59.928;10.682;2023-04-15T08:13:56;2.92;;;0.93;;
57155;SDS011;43023;59.928;10.682;2023-04-15T08:16:23;1.27;;;0.57;;
57155;SDS011;43023;59.928;10.682;2023-04-15T08:18:50;2.95;;;0.70;;
57155;SDS011;43023;59.928;10.682;2023-04-15T08:21:16;7.25;;;0.80;;
57155;SDS011;43023;59.928;10.682;2023-04-15T08:23:43;3.47;;;0.75;;
57155;SDS011;43023;59.928;10.682;2023-04-15T08:26:09;5.82;;;0.73;;
57155;SDS011;43023;59.928;10.682;2023-04-15T08:28:39;2.83;;;0.75;;
57155;SDS011;43023;59.928;10.682;2023-04-15T08:31:05;4.65;;;0.38;;
57155;SDS011;43023;59.928;10.682;2023-04-15T08:33:31;1.83;;;0.73;;
57155;SDS011;43023;59.928;10.682;2023-04-15T08:35:57;3.40;;;1.20;;
57155;SDS011;43023;59.928;10.682;2023-04-15T08:38:24;0.93;;;0.60;;
57155;SDS011;43023;59.928;10.682;2023-04-15T08:40:50;4.05;;;0.77;;
57155;SDS011;43023;59.928;10.682;2023-04-15T08:46:09;1.33;;;1.00;;
57155;SDS011;43023;59.928;10.682;2023-04-15T08:48:35;2.33;;;0.40;;
57155;SDS011;43023;59.928;10.682;2023-04-15T08:51:05;5.07;;;0.50;;
57155;SDS011;43023;59.928;10.682;2023-04-15T08:53:31;1.83;;;0.80;;
57155;SDS011;43023;59.928;10.682;2023-04-15T08:55:58;3.60;;;0.80;;
57155;SDS011;43023;59.928;10.682;2023-04-15T08:58:25;1.15;;;0.75;;
57155;SDS011;43023;59.928;10.682;2023-04-15T09:00:51;2.60;;;0.52;;
57155;SDS011;43023;59.928;10.682;2023-04-15T09:03:18;0.85;;;0.80;;
57155;SDS011;43023;59.928;10.682;2023-04-15T09:05:45;2.60;;;0.70;;
57155;SDS011;43023;59.928;10.682;2023-04-15T09:08:12;1.27;;;0.70;;
57155;SDS011;43023;59.928;10.682;2023-04-15T09:10:38;1.63;;;0.70;;
57155;SDS011;43023;59.928;10.682;2023-04-15T09:13:04;1.50;;;0.75;;
57155;SDS011;43023;59.928;10.682;2023-04-15T09:15:30;4.45;;;0.60;;
57155;SDS011;43023;59.928;10.682;2023-04-15T09:17:57;2.92;;;1.00;;
57155;SDS011;43023;59.928;10.682;2023-04-15T09:20:23;1.98;;;0.70;;
57155;SDS011;43023;59.928;10.682;2023-04-15T09:22:50;2.28;;;0.82;;
57155;SDS011;43023;59.928;10.682;2023-04-15T09:27:58;2.80;;;0.70;;
57155;SDS011;43023;59.928;10.682;2023-04-15T09:30:26;0.75;;;0.73;;
57155;SDS011;43023;59.928;10.682;2023-04-15T09:32:56;3.42;;;0.90;;
57155;SDS011;43023;59.928;10.682;2023-04-15T09:35:23;1.67;;;0.63;;
57155;SDS011;43023;59.928;10.682;2023-04-15T09:37:50;1.77;;;0.57;;
57155;SDS011;43023;59.928;10.682;2023-04-15T09:40:32;3.90;;;0.70;;
57155;SDS011;43023;59.928;10.682;2023-04-15T09:42:59;1.42;;;0.52;;
57155;SDS011;43023;59.928;10.682;2023-04-15T09:45:26;1.42;;;0.65;;
57155;SDS011;43023;59.928;10.682;2023-04-15T09:47:52;3.63;;;0.65;;
57155;SDS011;43023;59.928;10.682;2023-04-15T09:50:19;1.40;;;0.60;;
57155;SDS011;43023;59.928;10.682;2023-04-15T09:52:46;1.42;;;0.57;;
57155;SDS011;43023;59.928;10.682;2023-04-15T09:55:12;1.23;;;0.50;;
57155;SDS011;43023;59.928;10.682;2023-04-15T09:57:39;0.45;;;0.30;;
57155;SDS011;43023;59.928;10.682;2023-04-15T10:00:07;1.85;;;0.50;;
57155;SDS011;43023;59.928;10.682;2023-04-15T10:02:38;0.93;;;0.43;;
57155;SDS011;43023;59.928;10.682;2023-04-15T10:05:06;1.90;;;0.60;;
57155;SDS011;43023;59.928;10.682;2023-04-15T10:07:32;3.42;;;0.77;;
57155;SDS011;43023;59.928;10.682;2023-04-15T10:09:59;4.78;;;0.55;;
57155;SDS011;43023;59.928;10.682;2023-04-15T10:12:26;1.17;;;0.50;;
57155;SDS011;43023;59.928;10.682;2023-04-15T10:14:57;1.92;;;0.43;;
57155;SDS011;43023;59.928;10.682;2023-04-15T10:17:25;2.70;;;0.30;;
57155;SDS011;43023;59.928;10.682;2023-04-15T10:19:53;2.95;;;0.70;;
57155;SDS011;43023;59.928;10.682;2023-04-15T10:22:21;4.40;;;0.60;;
57155;SDS011;43023;59.928;10.682;2023-04-15T10:24:47;6.22;;;0.68;;
57155;SDS011;43023;59.928;10.682;2023-04-15T10:27:14;2.58;;;0.70;;
57155;SDS011;43023;59.928;10.682;2023-04-15T10:29:40;0.95;;;0.60;;
57155;SDS011;43023;59.928;10.682;2023-04-15T10:32:07;3.15;;;0.70;;
57155;SDS011;43023;59.928;10.682;2023-04-15T10:34:34;6.13;;;0.60;;
57155;SDS011;43023;59.928;10.682;2023-04-15T10:37:00;2.70;;;0.93;;
57155;SDS011;43023;59.928;10.682;2023-04-15T10:42:06;0.65;;;0.30;;
57155;SDS011;43023;59.928;10.682;2023-04-15T10:44:32;1.90;;;0.50;;
57155;SDS011;43023;59.928;10.682;2023-04-15T10:46:58;5.65;;;0.60;;
57155;SDS011;43023;59.928;10.682;2023-04-15T10:49:24;3.95;;;0.90;;
57155;SDS011;43023;59.928;10.682;2023-04-15T10:51:51;2.67;;;0.73;;
57155;SDS011;43023;59.928;10.682;2023-04-15T10:57:36;2.55;;;0.60;;
57155;SDS011;43023;59.928;10.682;2023-04-15T10:59:38;4.55;;;0.60;;
57155;SDS011;43023;59.928;10.682;2023-04-15T11:05:07;0.52;;;0.52;;
57155;SDS011;43023;59.928;10.682;2023-04-15T11:07:34;1.95;;;0.63;;
57155;SDS011;43023;59.928;10.682;2023-04-15T11:10:01;5.07;;;0.75;;
57155;SDS011;43023;59.928;10.682;2023-04-15T11:12:34;1.27;;;0.40;;
57155;SDS011;43023;59.928;10.682;2023-04-15T11:17:46;3.05;;;0.47;;
57155;SDS011;43023;59.928;10.682;2023-04-15T11:20:15;4.97;;;0.82;;
57155;SDS011;43023;59.928;10.682;2023-04-15T11:22:51;6.28;;;0.57;;
57155;SDS011;43023;59.928;10.682;2023-04-15T11:25:25;10.80;;;1.05;;
57155;SDS011;43023;59.928;10.682;2023-04-15T11:27:52;9.45;;;0.63;;
57155;SDS011;43023;59.928;10.682;2023-04-15T11:30:19;5.85;;;1.25;;
57155;SDS011;43023;59.928;10.682;2023-04-15T11:32:46;8.38;;;0.70;;
57155;SDS011;43023;59.928;10.682;2023-04-15T11:35:12;5.43;;;0.65;;
57155;SDS011;43023;59.928;10.682;2023-04-15T11:37:38;2.03;;;0.90;;
57155;SDS011;43023;59.928;10.682;2023-04-15T11:40:05;3.65;;;1.02;;
57155;SDS011;43023;59.928;10.682;2023-04-15T11:42:31;10.43;;;1.20;;
57155;SDS011;43023;59.928;10.682;2023-04-15T11:45:11;3.58;;;1.05;;
57155;SDS011;43023;59.928;10.682;2023-04-15T11:47:38;11.30;;;1.38;;
57155;SDS011;43023;59.928;10.682;2023-04-15T11:50:20;4.57;;;1.17;;
57155;SDS011;43023;59.928;10.682;2023-04-15T11:52:56;4.28;;;0.70;;
57155;SDS011;43023;59.928;10.682;2023-04-15T11:55:23;4.95;;;0.75;;
57155;SDS011;43023;59.928;10.682;2023-04-15T11:57:50;3.85;;;0.98;;
57155;SDS011;43023;59.928;10.682;2023-04-15T12:00:16;4.93;;;1.00;;
57155;SDS011;43023;59.928;10.682;2023-04-15T12:02:42;2.00;;;0.65;;
57155;SDS011;43023;59.928;10.682;2023-04-15T12:05:08;4.05;;;0.90;;
57155;SDS011;43023;59.928;10.682;2023-04-15T12:10:22;3.05;;;0.60;;
57155;SDS011;43023;59.928;10.682;2023-04-15T12:12:50;2.55;;;1.15;;
57155;SDS011;43023;59.928;10.682;2023-04-15T12:15:20;5.75;;;0.60;;
57155;SDS011;43023;59.928;10.682;2023-04-15T12:17:46;1.23;;;0.80;;
57155;SDS011;43023;59.928;10.682;2023-04-15T12:20:12;6.65;;;0.95;;
57155;SDS011;43023;59.928;10.682;2023-04-15T12:22:39;5.10;;;0.77;;
57155;SDS011;43023;59.928;10.682;2023-04-15T12:25:05;2.97;;;0.90;;
57155;SDS011;43023;59.928;10.682;2023-04-15T12:27:31;4.10;;;1.00;;
57155;SDS011;43023;59.928;10.682;2023-04-15T12:30:05;3.08;;;0.70;;
57155;SDS011;43023;59.928;10.682;2023-04-15T12:32:35;3.20;;;0.68;;
57155;SDS011;43023;59.928;10.682;2023-04-15T12:35:01;3.95;;;0.93;;
57155;SDS011;43023;59.928;10.682;2023-04-15T12:37:27;2.78;;;0.90;;
57155;SDS011;43023;59.928;10.682;2023-04-15T12:39:53;1.88;;;0.82;;
57155;SDS011;43023;59.928;10.682;2023-04-15T12:42:19;2.25;;;0.88;;
57155;SDS011;43023;59.928;10.682;2023-04-15T12:44:46;7.20;;;1.00;;
57155;SDS011;43023;59.928;10.682;2023-04-15T12:47:12;1.17;;;0.63;;
57155;SDS011;43023;59.928;10.682;2023-04-15T12:49:39;3.58;;;0.98;;
57155;SDS011;43023;59.928;10.682;2023-04-15T12:52:05;2.28;;;0.90;;
57155;SDS011;43023;59.928;10.682;2023-04-15T12:54:31;2.22;;;1.15;;
57155;SDS011;43023;59.928;10.682;2023-04-15T12:56:58;2.38;;;0.70;;
57155;SDS011;43023;59.928;10.682;2023-04-15T12:59:25;8.00;;;1.00;;
57155;SDS011;43023;59.928;10.682;2023-04-15T13:01:51;2.15;;;0.80;;
57155;SDS011;43023;59.928;10.682;2023-04-15T13:04:18;3.63;;;1.00;;
57155;SDS011;43023;59.928;10.682;2023-04-15T13:06:44;3.97;;;0.98;;
57155;SDS011;43023;59.928;10.682;2023-04-15T13:09:10;2.45;;;0.95;;
57155;SDS011;43023;59.928;10.682;2023-04-15T13:11:36;4.45;;;0.52;;
57155;SDS011;43023;59.928;10.682;2023-04-15T13:14:03;3.65;;;0.88;;
57155;SDS011;43023;59.928;10.682;2023-04-15T13:16:29;4.85;;;0.77;;
57155;SDS011;43023;59.928;10.682;2023-04-15T13:18:56;5.03;;;1.00;;
57155;SDS011;43023;59.928;10.682;2023-04-15T13:21:22;3.90;;;0.90;;
57155;SDS011;43023;59.928;10.682;2023-04-15T13:23:49;2.05;;;0.85;;
57155;SDS011;43023;59.928;10.682;2023-04-15T13:26:16;3.35;;;0.75;;
57155;SDS011;43023;59.928;10.682;2023-04-15T13:28:42;2.63;;;1.10;;
57155;SDS011;43023;59.928;10.682;2023-04-15T13:31:08;1.10;;;0.60;;
57155;SDS011;43023;59.928;10.682;2023-04-15T13:33:34;1.38;;;0.95;;
57155;SDS011;43023;59.928;10.682;2023-04-15T13:36:00;1.73;;;1.10;;
57155;SDS011;43023;59.928;10.682;2023-04-15T13:38:27;2.85;;;1.10;;
57155;SDS011;43023;59.928;10.682;2023-04-15T13:40:53;1.45;;;1.15;;
57155;SDS011;43023;59.928;10.682;2023-04-15T13:43:19;2.35;;;0.68;;
57155;SDS011;43023;59.928;10.682;2023-04-15T13:45:45;2.10;;;0.70;;
57155;SDS011;43023;59.928;10.682;2023-04-15T13:48:11;2.55;;;0.95;;
57155;SDS011;43023;59.928;10.682;2023-04-15T13:50:37;2.85;;;0.80;;
57155;SDS011;43023;59.928;10.682;2023-04-15T13:53:05;1.90;;;0.68;;
57155;SDS011;43023;59.928;10.682;2023-04-15T13:55:31;1.98;;;0.60;;
57155;SDS011;43023;59.928;10.682;2023-04-15T13:57:59;2.25;;;0.73;;
57155;SDS011;43023;59.928;10.682;2023-04-15T14:00:25;2.15;;;1.00;;
57155;SDS011;43023;59.928;10.682;2023-04-15T14:02:51;5.30;;;1.10;;
57155;SDS011;43023;59.928;10.682;2023-04-15T14:05:17;1.58;;;0.40;;
57155;SDS011;43023;59.928;10.682;2023-04-15T14:07:43;0.85;;;0.75;;
57155;SDS011;43023;59.928;10.682;2023-04-15T14:10:09;0.70;;;0.70;;
57155;SDS011;43023;59.928;10.682;2023-04-15T14:12:35;1.30;;;0.60;;
57155;SDS011;43023;59.928;10.682;2023-04-15T14:15:02;3.50;;;1.23;;
57155;SDS011;43023;59.928;10.682;2023-04-15T14:17:28;2.47;;;0.70;;
57155;SDS011;43023;59.928;10.682;2023-04-15T14:19:54;3.08;;;0.88;;
57155;SDS011;43023;59.928;10.682;2023-04-15T14:22:20;2.88;;;0.82;;
57155;SDS011;43023;59.928;10.682;2023-04-15T14:24:46;2.95;;;1.20;;
57155;SDS011;43023;59.928;10.682;2023-04-15T14:27:13;3.58;;;1.20;;
57155;SDS011;43023;59.928;10.682;2023-04-15T14:29:40;6.50;;;0.75;;
57155;SDS011;43023;59.928;10.682;2023-04-15T14:32:07;3.97;;;0.88;;
57155;SDS011;43023;59.928;10.682;2023-04-15T14:34:33;4.70;;;0.80;;
57155;SDS011;43023;59.928;10.682;2023-04-15T14:36:59;5.57;;;1.20;;
57155;SDS011;43023;59.928;10.682;2023-04-15T14:39:25;4.10;;;0.90;;
57155;SDS011;43023;59.928;10.682;2023-04-15T14:41:51;5.45;;;0.95;;
57155;SDS011;43023;59.928;10.682;2023-04-15T14:44:17;4.35;;;0.85;;
57155;SDS011;43023;59.928;10.682;2023-04-15T14:46:43;3.25;;;0.57;;
57155;SDS011;43023;59.928;10.682;2023-04-15T14:49:09;5.63;;;0.80;;
57155;SDS011;43023;59.928;10.682;2023-04-15T14:51:35;2.08;;;0.93;;